createdAt,value
2022-09-20T00:01:11.964Z,6.40
2022-09-20T00:03:42.090Z,4.95
2022-09-20T00:06:12.075Z,6.03
2022-09-20T00:08:39.231Z,5.53
2022-09-20T00:11:09.395Z,11.40
2022-09-20T00:13:38.472Z,7.85
2022-09-20T00:16:11.136Z,7.00
2022-09-20T00:18:39.691Z,6.38
2022-09-20T00:21:06.555Z,6.63
2022-09-20T00:23:33.847Z,6.07
2022-09-20T00:26:02.466Z,5.07
2022-09-20T00:28:29.990Z,5.10
2022-09-20T00:30:56.863Z,5.88
2022-09-20T00:33:45.309Z,7.43
2022-09-20T00:36:12.803Z,8.13
2022-09-20T00:38:39.819Z,6.00
2022-09-20T00:41:07.078Z,4.35
2022-09-20T00:43:53.083Z,5.13
2022-09-20T00:46:24.846Z,5.10
2022-09-20T00:48:56.380Z,5.13
2022-09-20T00:51:29.229Z,6.05
2022-09-20T00:53:58.858Z,11.18
2022-09-20T00:56:31.519Z,6.57
2022-09-20T00:59:10.255Z,6.07
2022-09-20T01:01:37.587Z,3.78
2022-09-20T01:04:04.932Z,6.13
2022-09-20T01:06:33.823Z,4.47
2022-09-20T01:09:03.510Z,6.28
2022-09-20T01:11:30.814Z,3.93
2022-09-20T01:13:57.769Z,6.45
2022-09-20T01:16:26.859Z,8.18
2022-09-20T01:18:57.273Z,5.28
2022-09-20T01:21:26.214Z,6.35
2022-09-20T01:24:20.359Z,5.67
2022-09-20T01:27:02.510Z,4.53
2022-09-20T01:29:32.335Z,5.55
2022-09-20T01:32:03.462Z,4.82
2022-09-20T01:34:39.920Z,3.80
2022-09-20T01:37:16.207Z,5.63
2022-09-20T01:39:52.096Z,5.25
2022-09-20T01:42:20.500Z,5.57
2022-09-20T01:45:05.919Z,4.75
2022-09-20T01:47:42.392Z,5.32
2022-09-20T01:50:32.639Z,4.53
2022-09-20T01:53:20.509Z,4.60
2022-09-20T01:56:05.604Z,5.05
2022-09-20T01:58:32.590Z,7.38
2022-09-20T02:01:11.491Z,5.20
2022-09-20T02:04:08.728Z,5.53
2022-09-20T02:06:50.882Z,5.68
2022-09-20T02:09:40.620Z,6.65
2022-09-20T02:12:22.011Z,6.78
2022-09-20T02:15:17.869Z,7.20
2022-09-20T02:18:17.333Z,4.43
2022-09-20T02:21:03.720Z,4.60
2022-09-20T02:24:00.614Z,5.93
2022-09-20T02:26:48.431Z,6.88
2022-09-20T02:29:34.096Z,4.05
2022-09-20T02:32:00.798Z,5.80
2022-09-20T02:34:44.744Z,5.85
2022-09-20T02:37:21.380Z,6.85
2022-09-20T02:40:10.448Z,8.10
2022-09-20T02:42:46.530Z,6.07
2022-09-20T02:45:28.511Z,4.57
2022-09-20T02:48:01.050Z,6.13
2022-09-20T02:50:56.067Z,7.30
2022-09-20T02:53:43.917Z,6.90
2022-09-20T02:56:35.704Z,9.43
2022-09-20T02:59:20.340Z,6.10
2022-09-20T03:02:24.742Z,6.00
2022-09-20T03:05:29.930Z,3.72
2022-09-20T03:08:24.680Z,3.75
2022-09-20T03:10:54.440Z,3.88
2022-09-20T03:13:35.413Z,5.03
2022-09-20T03:16:15.155Z,4.88
2022-09-20T03:18:57.600Z,6.20
2022-09-20T03:21:32.970Z,5.30
2022-09-20T03:24:25.737Z,5.25
2022-09-20T03:26:55.379Z,4.87
2022-09-20T03:29:31.226Z,5.63
2022-09-20T03:32:31.142Z,6.90
2022-09-20T03:35:28.554Z,4.78
2022-09-20T03:38:05.025Z,6.00
2022-09-20T03:40:58.888Z,8.07
2022-09-20T03:43:49.835Z,9.05
2022-09-20T03:46:21.752Z,8.15
2022-09-20T03:49:07.241Z,4.90
2022-09-20T03:51:48.867Z,4.85
2022-09-20T03:54:31.710Z,7.23
2022-09-20T03:57:32.073Z,7.35
2022-09-20T04:00:09.084Z,6.10
2022-09-20T04:03:14.273Z,7.60
2022-09-20T04:05:52.860Z,5.40
2022-09-20T04:08:40.892Z,9.03
2022-09-20T04:11:26.203Z,9.23
2022-09-20T04:14:18.258Z,10.90
2022-09-20T04:16:47.757Z,9.55
2022-09-20T04:19:33.338Z,10.00
2022-09-20T04:22:01.662Z,10.80
2022-09-20T04:24:28.862Z,8.05
2022-09-20T04:27:43.235Z,9.35
2022-09-20T04:30:24.284Z,7.20
2022-09-20T04:33:17.910Z,7.03
2022-09-20T04:36:16.529Z,5.10
2022-09-20T04:38:43.599Z,7.93
2022-09-20T04:41:42.034Z,7.35
2022-09-20T04:44:38.461Z,7.22
2022-09-20T04:47:23.438Z,7.50
2022-09-20T04:50:12.088Z,6.37
2022-09-20T04:52:55.201Z,6.78
2022-09-20T04:55:48.722Z,6.20
2022-09-20T04:58:36.316Z,7.93
2022-09-20T05:01:16.701Z,5.95
2022-09-20T05:04:08.809Z,5.73
2022-09-20T05:07:04.458Z,6.35
2022-09-20T05:09:54.913Z,9.85
2022-09-20T05:12:58.559Z,10.38
2022-09-20T05:15:41.258Z,9.05
2022-09-20T05:18:26.740Z,9.63
2022-09-20T05:21:13.474Z,7.80
2022-09-20T05:23:56.883Z,8.45
2022-09-20T05:26:39.074Z,9.15
2022-09-20T05:29:22.830Z,7.63
2022-09-20T05:31:55.408Z,6.27
2022-09-20T05:34:44.089Z,7.45
2022-09-20T05:37:26.959Z,5.22
2022-09-20T05:40:13.199Z,10.27
2022-09-20T05:42:44.232Z,7.50
2022-09-20T05:45:52.757Z,6.23
2022-09-20T05:48:39.144Z,7.13
2022-09-20T05:51:32.829Z,7.53
2022-09-20T05:54:23.908Z,6.78
2022-09-20T05:57:21.393Z,7.72
2022-09-20T06:00:16.363Z,5.20
2022-09-20T06:02:54.114Z,6.10
2022-09-20T06:05:45.642Z,5.65
2022-09-20T06:08:31.106Z,8.05
2022-09-20T06:11:06.985Z,8.98
2022-09-20T06:13:59.747Z,6.13
2022-09-20T06:17:00.900Z,7.93
2022-09-20T06:19:52.825Z,6.47
2022-09-20T06:22:27.831Z,9.02
2022-09-20T06:25:09.883Z,8.80
2022-09-20T06:27:43.189Z,8.37
2022-09-20T06:30:19.801Z,6.85
2022-09-20T06:32:58.761Z,7.95
2022-09-20T06:35:35.369Z,8.68
2022-09-20T06:38:27.984Z,9.27
2022-09-20T06:41:13.792Z,6.38
2022-09-20T06:43:41.170Z,4.63
2022-09-20T06:46:08.059Z,7.78
2022-09-20T06:48:35.299Z,8.70
2022-09-20T06:51:02.661Z,7.32
2022-09-20T06:53:34.891Z,5.82
2022-09-20T06:56:02.108Z,4.80
2022-09-20T06:58:29.612Z,9.65
2022-09-20T07:00:56.330Z,8.02
2022-09-20T07:03:23.058Z,6.18
2022-09-20T07:05:50.117Z,6.38
2022-09-20T07:08:17.287Z,8.63
2022-09-20T07:10:44.048Z,5.72
2022-09-20T07:13:13.443Z,5.32
2022-09-20T07:15:40.368Z,7.05
2022-09-20T07:18:08.188Z,5.45
2022-09-20T07:20:35.542Z,7.93
2022-09-20T07:23:02.704Z,7.93
2022-09-20T07:25:31.382Z,5.43
2022-09-20T07:27:58.355Z,7.75
2022-09-20T07:30:25.126Z,9.27
2022-09-20T07:32:51.812Z,7.40
2022-09-20T07:35:18.851Z,6.75
2022-09-20T07:37:45.733Z,7.13
2022-09-20T07:40:12.486Z,5.43
2022-09-20T07:42:39.767Z,5.68
2022-09-20T07:45:07.733Z,7.03
2022-09-20T07:47:35.547Z,5.85
2022-09-20T07:50:03.933Z,4.93
2022-09-20T07:52:30.749Z,5.28
2022-09-20T07:54:57.628Z,6.03
2022-09-20T07:57:24.724Z,5.03
2022-09-20T07:59:51.454Z,6.28
2022-09-20T08:02:18.197Z,7.00
2022-09-20T08:04:45.133Z,6.47
2022-09-20T08:07:12.714Z,6.75
2022-09-20T08:09:39.468Z,4.50
2022-09-20T08:14:55.435Z,6.97
2022-09-20T08:17:22.383Z,7.13
2022-09-20T08:19:53.324Z,6.15
2022-09-20T08:22:20.260Z,6.45
2022-09-20T08:24:47.205Z,6.10
2022-09-20T08:27:14.118Z,5.85
2022-09-20T08:29:41.029Z,6.80
2022-09-20T08:32:08.120Z,4.90
2022-09-20T08:34:34.940Z,5.10
2022-09-20T08:37:01.871Z,5.65
2022-09-20T08:42:27.300Z,6.38
2022-09-20T08:44:59.220Z,5.45
2022-09-20T08:47:29.555Z,3.88
2022-09-20T08:49:58.146Z,5.78
2022-09-20T08:52:39.904Z,4.07
2022-09-20T08:55:20.795Z,5.27
2022-09-20T08:57:50.511Z,5.30
2022-09-20T09:00:20.697Z,4.95
2022-09-20T09:02:50.469Z,5.30
2022-09-20T09:05:38.951Z,5.50
2022-09-20T09:08:38.087Z,4.97
2022-09-20T09:11:10.882Z,5.20
2022-09-20T09:14:02.761Z,7.40
2022-09-20T09:16:35.403Z,4.75
2022-09-20T09:19:33.151Z,6.95
2022-09-20T09:22:03.490Z,5.77
2022-09-20T09:24:34.194Z,4.82
2022-09-20T09:27:19.882Z,4.82
2022-09-20T09:29:51.912Z,5.95
2022-09-20T09:32:25.217Z,3.70
2022-09-20T09:34:52.069Z,4.83
2022-09-20T09:37:29.214Z,4.95
2022-09-20T09:40:16.677Z,3.92
2022-09-20T09:42:55.433Z,6.32
2022-09-20T09:45:38.673Z,3.70
2022-09-20T09:48:24.617Z,4.35
2022-09-20T09:51:08.606Z,6.03
2022-09-20T09:53:36.644Z,4.75
2022-09-20T09:56:15.521Z,4.03
2022-09-20T09:59:19.928Z,5.28
2022-09-20T10:02:02.601Z,3.75
2022-09-20T10:04:41.522Z,6.65
2022-09-20T10:07:17.524Z,5.50
2022-09-20T10:10:18.329Z,4.83
2022-09-20T10:12:52.814Z,4.57
2022-09-20T10:15:36.414Z,4.25
2022-09-20T10:18:25.626Z,6.35
2022-09-20T10:21:13.105Z,5.38
2022-09-20T10:24:05.815Z,8.90
2022-09-20T10:26:46.535Z,8.10
2022-09-20T10:29:19.945Z,6.78
2022-09-20T10:32:05.472Z,3.88
2022-09-20T10:34:51.326Z,4.65
2022-09-20T10:37:28.550Z,3.97
2022-09-20T10:40:07.061Z,4.93
2022-09-20T10:43:08.465Z,4.50
2022-09-20T10:48:51.596Z,4.97
2022-09-20T10:51:34.216Z,3.30
2022-09-20T10:54:15.895Z,4.18
2022-09-20T10:56:49.279Z,4.40
2022-09-20T10:59:48.255Z,5.25
2022-09-20T11:02:37.074Z,7.13
2022-09-20T11:05:25.158Z,3.70
2022-09-20T11:08:06.064Z,4.55
2022-09-20T11:10:46.211Z,5.53
2022-09-20T11:13:22.515Z,5.35
2022-09-20T11:16:00.956Z,4.93
2022-09-20T11:18:32.827Z,5.03
2022-09-20T11:21:22.325Z,6.03
2022-09-20T11:24:10.427Z,5.40
2022-09-20T11:26:41.788Z,3.63
2022-09-20T11:29:40.054Z,5.78
2022-09-20T11:32:22.356Z,4.40
2022-09-20T11:34:56.209Z,4.63
2022-09-20T11:37:29.734Z,6.07
2022-09-20T11:40:01.713Z,3.95
2022-09-20T11:42:36.468Z,4.60
2022-09-20T11:45:04.038Z,4.27
2022-09-20T11:47:55.830Z,5.00
2022-09-20T11:50:33.068Z,5.25
2022-09-20T11:53:11.262Z,4.65
2022-09-20T11:56:05.156Z,4.43
2022-09-20T11:58:48.270Z,4.37
2022-09-20T12:01:28.648Z,4.63
2022-09-20T12:04:33.335Z,4.75
2022-09-20T12:07:18.424Z,5.25
2022-09-20T12:09:52.125Z,4.07
2022-09-20T12:12:32.415Z,3.60
2022-09-20T12:15:01.611Z,5.35
2022-09-20T12:17:47.123Z,4.88
2022-09-20T12:20:39.761Z,3.55
2022-09-20T12:23:42.395Z,2.88
2022-09-20T12:26:14.057Z,3.37
2022-09-20T12:28:43.146Z,4.28
2022-09-20T12:31:19.337Z,4.13
2022-09-20T12:33:59.685Z,3.80
2022-09-20T12:36:34.272Z,3.58
2022-09-20T12:39:09.521Z,3.47
2022-09-20T12:41:54.218Z,3.78
2022-09-20T12:44:37.108Z,3.13
2022-09-20T12:47:17.614Z,4.20
2022-09-20T12:50:06.134Z,3.30
2022-09-20T12:52:57.165Z,4.73
2022-09-20T12:55:50.169Z,3.10
2022-09-20T12:58:22.996Z,4.90
2022-09-20T13:01:14.139Z,4.25
2022-09-20T13:03:47.058Z,4.20
2022-09-20T13:06:14.874Z,4.47
2022-09-20T13:08:50.114Z,5.03
2022-09-20T13:11:27.548Z,4.68
2022-09-20T13:14:09.946Z,5.00
2022-09-20T13:16:39.506Z,5.20
2022-09-20T13:19:17.473Z,3.92
2022-09-20T13:22:08.101Z,3.60
2022-09-20T13:24:40.934Z,4.40
2022-09-20T13:27:19.220Z,5.30
2022-09-20T13:29:46.859Z,3.30
2022-09-20T13:32:34.583Z,3.72
2022-09-20T13:35:07.304Z,3.38
2022-09-20T13:37:35.585Z,3.77
2022-09-20T13:40:03.806Z,3.92
2022-09-20T13:42:33.611Z,5.03
2022-09-20T13:45:01.199Z,5.07
2022-09-20T13:47:32.387Z,4.65
2022-09-20T13:50:10.495Z,5.23
2022-09-20T13:52:46.337Z,3.55
2022-09-20T13:55:33.299Z,3.80
2022-09-20T13:58:09.720Z,4.00
2022-09-20T14:00:38.432Z,3.35
2022-09-20T14:03:05.960Z,4.50
2022-09-20T14:05:33.520Z,3.50
2022-09-20T14:08:00.791Z,5.07
2022-09-20T14:10:42.961Z,3.22
2022-09-20T14:13:16.231Z,5.53
2022-09-20T14:15:46.510Z,3.80
2022-09-20T14:18:17.255Z,4.82
2022-09-20T14:20:45.102Z,4.00
2022-09-20T14:23:21.443Z,4.10
2022-09-20T14:26:07.284Z,4.57
2022-09-20T14:28:33.904Z,3.97
2022-09-20T14:31:08.558Z,2.80
2022-09-20T14:33:41.553Z,5.50
2022-09-20T14:36:16.590Z,3.92
2022-09-20T14:38:45.047Z,4.03
2022-09-20T14:41:13.248Z,3.47
2022-09-20T14:43:42.258Z,8.70
2022-09-20T14:46:17.191Z,3.42
2022-09-20T14:48:45.479Z,5.20
2022-09-20T14:51:27.704Z,3.80
2022-09-20T14:54:04.162Z,6.67
2022-09-20T14:56:37.066Z,3.42
2022-09-20T14:59:19.721Z,4.05
2022-09-20T15:02:21.456Z,3.80
2022-09-20T15:04:54.320Z,6.30
2022-09-20T15:07:21.244Z,3.67
2022-09-20T15:09:47.996Z,5.38
2022-09-20T15:12:16.652Z,5.05
2022-09-20T15:14:43.450Z,6.28
2022-09-20T15:17:15.273Z,4.03
2022-09-20T15:19:42.191Z,4.97
2022-09-20T15:22:10.299Z,3.95
2022-09-20T15:24:37.472Z,5.45
2022-09-20T15:27:04.796Z,4.35
2022-09-20T15:29:31.678Z,4.03
2022-09-20T15:31:58.350Z,3.80
2022-09-20T15:34:25.308Z,5.45
2022-09-20T15:36:53.958Z,4.30
2022-09-20T15:39:22.304Z,4.40
2022-09-20T15:41:52.523Z,4.18
2022-09-20T15:44:20.190Z,7.47
2022-09-20T15:46:48.233Z,4.85
2022-09-20T15:49:15.262Z,3.78
2022-09-20T15:51:41.948Z,4.82
2022-09-20T15:54:13.352Z,4.13
2022-09-20T15:56:40.504Z,3.45
2022-09-20T15:59:09.781Z,4.73
2022-09-20T16:01:39.759Z,3.83
2022-09-20T16:04:12.449Z,5.00
2022-09-20T16:06:40.903Z,4.75
2022-09-20T16:09:08.272Z,3.17
2022-09-20T16:11:35.502Z,4.17
2022-09-20T16:14:03.045Z,5.65
2022-09-20T16:16:36.092Z,3.60
2022-09-20T16:19:18.041Z,3.33
2022-09-20T16:21:55.010Z,3.35
2022-09-20T16:24:25.758Z,3.87
2022-09-20T16:26:53.122Z,5.00
2022-09-20T16:29:22.077Z,6.28
2022-09-20T16:31:50.208Z,4.88
2022-09-20T16:34:28.561Z,4.00
2022-09-20T16:36:58.612Z,5.63
2022-09-20T16:39:27.794Z,3.80
2022-09-20T16:42:03.674Z,3.45
2022-09-20T16:44:32.845Z,3.10
2022-09-20T16:46:59.764Z,4.47
2022-09-20T16:49:27.962Z,3.17
2022-09-20T16:51:55.175Z,4.95
2022-09-20T16:54:21.937Z,4.05
2022-09-20T16:56:50.612Z,3.88
2022-09-20T16:59:21.382Z,3.70
2022-09-20T17:01:49.421Z,4.20
2022-09-20T17:04:18.469Z,4.75
2022-09-20T17:06:45.901Z,2.80
2022-09-20T17:09:14.164Z,4.32
2022-09-20T17:11:51.329Z,3.28
2022-09-20T17:14:20.450Z,4.33
2022-09-20T17:16:48.445Z,3.97
2022-09-20T17:19:20.446Z,3.40
2022-09-20T17:21:50.494Z,4.53
2022-09-20T17:24:19.778Z,3.03
2022-09-20T17:26:47.014Z,3.63
2022-09-20T17:29:16.247Z,3.75
2022-09-20T17:31:53.265Z,3.83
2022-09-20T17:34:25.357Z,4.35
2022-09-20T17:36:54.080Z,3.92
2022-09-20T17:39:20.745Z,3.50
2022-09-20T17:41:49.338Z,3.42
2022-09-20T17:44:16.571Z,3.50
2022-09-20T17:46:45.009Z,2.92
2022-09-20T17:49:14.721Z,5.45
2022-09-20T17:51:43.992Z,3.00
2022-09-20T17:54:14.735Z,3.38
2022-09-20T17:56:44.302Z,3.15
2022-09-20T17:59:12.592Z,3.25
2022-09-20T18:01:40.518Z,4.10
2022-09-20T18:04:08.488Z,5.57
2022-09-20T18:06:43.945Z,3.80
2022-09-20T18:09:14.664Z,5.50
2022-09-20T18:11:49.025Z,8.82
2022-09-20T18:14:18.986Z,7.70
2022-09-20T18:16:47.024Z,6.00
2022-09-20T18:19:15.961Z,5.40
2022-09-20T18:21:43.194Z,6.20
2022-09-20T18:24:11.436Z,4.75
2022-09-20T18:26:39.033Z,7.88
2022-09-20T18:29:12.091Z,5.77
2022-09-20T18:31:57.903Z,5.10
2022-09-20T18:34:33.431Z,7.50
2022-09-20T18:37:01.623Z,9.60
2022-09-20T18:39:32.484Z,8.77
2022-09-20T18:42:00.002Z,7.93
2022-09-20T18:44:34.350Z,7.43
2022-09-20T18:47:02.722Z,9.30
2022-09-20T18:49:30.606Z,8.50
2022-09-20T18:51:57.899Z,10.27
2022-09-20T18:54:24.750Z,12.57
2022-09-20T18:56:51.738Z,12.10
2022-09-20T18:59:24.160Z,10.68
2022-09-20T19:01:54.008Z,11.55
2022-09-20T19:04:45.858Z,13.63
2022-09-20T19:07:28.054Z,10.67
2022-09-20T19:10:29.113Z,10.00
2022-09-20T19:13:10.773Z,10.88
2022-09-20T19:16:02.917Z,8.95
2022-09-20T19:18:39.009Z,9.57
2022-09-20T19:21:05.795Z,6.27
2022-09-20T19:24:07.627Z,7.53
2022-09-20T19:26:38.657Z,4.90
2022-09-20T19:29:22.186Z,7.20
2022-09-20T19:31:51.535Z,5.57
2022-09-20T19:34:24.583Z,6.13
2022-09-20T19:37:18.722Z,5.55
2022-09-20T19:40:11.223Z,5.43
2022-09-20T19:42:54.741Z,4.35
2022-09-20T19:45:35.938Z,4.90
2022-09-20T19:48:16.575Z,5.73
2022-09-20T19:50:50.043Z,7.07
2022-09-20T19:53:18.701Z,7.30
2022-09-20T19:55:53.694Z,8.63
2022-09-20T19:58:20.701Z,8.85
2022-09-20T20:00:48.220Z,10.37
2022-09-20T20:03:16.144Z,8.38
2022-09-20T20:05:51.698Z,9.77
2022-09-20T20:08:35.199Z,8.13
2022-09-20T20:11:09.925Z,8.55
2022-09-20T20:14:01.664Z,8.40
2022-09-20T20:16:54.997Z,8.32
2022-09-20T20:19:36.091Z,7.28
2022-09-20T20:22:21.603Z,8.50
2022-09-20T20:24:53.710Z,6.10
2022-09-20T20:27:20.994Z,6.63
2022-09-20T20:29:49.303Z,7.40
2022-09-20T20:32:16.665Z,6.25
2022-09-20T20:34:43.565Z,6.10
2022-09-20T20:37:10.214Z,6.20
2022-09-20T20:39:37.168Z,6.75
2022-09-20T20:42:06.252Z,9.53
2022-09-20T20:44:37.084Z,6.35
2022-09-20T20:47:05.893Z,7.40
2022-09-20T20:49:33.047Z,5.90
2022-09-20T20:52:04.337Z,6.35
2022-09-20T20:54:32.308Z,5.03
2022-09-20T20:56:59.498Z,6.93
2022-09-20T20:59:26.411Z,7.78
2022-09-20T21:01:53.852Z,8.50
2022-09-20T21:04:21.742Z,5.93
2022-09-20T21:06:50.133Z,6.68
2022-09-20T21:09:17.222Z,5.67
2022-09-20T21:11:44.199Z,7.55
2022-09-20T21:14:12.798Z,6.45
2022-09-20T21:16:42.544Z,6.22
2022-09-20T21:19:13.056Z,6.18
2022-09-20T21:21:42.211Z,6.87
2022-09-20T21:24:11.190Z,4.78
2022-09-20T21:26:39.051Z,6.65
2022-09-20T21:29:07.849Z,5.78
2022-09-20T21:31:38.342Z,5.63
2022-09-20T21:34:09.934Z,7.07
2022-09-20T21:36:38.151Z,5.95
2022-09-20T21:39:05.997Z,7.75
2022-09-20T21:41:35.466Z,8.98
2022-09-20T21:44:03.944Z,7.43
2022-09-20T21:46:32.317Z,5.78
2022-09-20T21:49:01.510Z,6.57
2022-09-20T21:51:31.303Z,5.82
2022-09-20T21:54:01.304Z,6.28
2022-09-20T21:56:31.359Z,6.00
2022-09-20T21:59:02.057Z,4.80
2022-09-20T22:01:32.493Z,5.63
2022-09-20T22:04:00.877Z,4.63
2022-09-20T22:06:33.462Z,5.35
2022-09-20T22:09:03.107Z,4.60
2022-09-20T22:11:36.018Z,6.13
2022-09-20T22:14:03.321Z,5.27
2022-09-20T22:16:32.419Z,7.78
2022-09-20T22:19:00.483Z,6.30
2022-09-20T22:21:30.232Z,7.47
2022-09-20T22:24:00.798Z,6.95
2022-09-20T22:26:30.518Z,8.63
2022-09-20T22:28:57.799Z,9.32
2022-09-20T22:31:26.706Z,8.60
2022-09-20T22:33:56.321Z,6.95
2022-09-20T22:36:26.875Z,5.80
2022-09-20T22:38:54.200Z,5.37
2022-09-20T22:41:21.321Z,5.03
2022-09-20T22:43:48.938Z,5.18
2022-09-20T22:46:18.571Z,6.63
2022-09-20T22:48:46.109Z,8.90
2022-09-20T22:51:15.793Z,6.03
2022-09-20T22:53:43.008Z,7.18
2022-09-20T22:56:12.713Z,7.40
2022-09-20T22:58:44.815Z,6.78
2022-09-20T23:01:20.642Z,7.22
2022-09-20T23:03:52.889Z,6.97
2022-09-20T23:06:32.130Z,5.60
2022-09-20T23:09:01.856Z,8.05
2022-09-20T23:11:29.803Z,9.07
2022-09-20T23:13:58.859Z,7.88
2022-09-20T23:16:31.706Z,6.63
2022-09-20T23:19:00.389Z,6.10
2022-09-20T23:21:28.204Z,6.47
2022-09-20T23:24:00.178Z,7.03
2022-09-20T23:26:29.775Z,7.70
2022-09-20T23:29:17.022Z,7.82
2022-09-20T23:31:46.723Z,7.57
2022-09-20T23:34:15.391Z,7.72
2022-09-20T23:36:44.344Z,7.35
2022-09-20T23:39:11.804Z,6.28
2022-09-20T23:41:39.351Z,9.45
2022-09-20T23:44:06.739Z,10.70
2022-09-20T23:46:34.183Z,8.00
2022-09-20T23:49:01.500Z,7.50
2022-09-20T23:51:29.473Z,5.47
2022-09-20T23:53:56.325Z,9.80
2022-09-20T23:56:23.953Z,6.93
2022-09-20T23:58:51.010Z,8.10
